| time (UTC) | temp C | wind direction | speed KPH | gust KPH | rain 1hr cm | rain 24hr cm | rain mn cm | humidity % | barometer mb |
| 20260504234543 | 27 | 282 | 0.0 | 4.8 | 0.00 | 0.00 | 0.00 | 23 | 910.8 |
| 20260504233044 | 27 | 283 | 3.2 | 11.3 | 0.00 | 0.00 | 0.00 | 24 | 910.7 |
| 20260504231542 | 27 | 290 | 1.6 | 6.4 | 0.00 | 0.00 | 0.00 | 23 | 910.7 |
| 20260504230040 | 27 | 290 | 3.2 | 11.3 | 0.00 | 0.00 | 0.00 | 23 | 910.8 |
| 20260504224539 | 27 | 220 | 1.6 | 6.4 | 0.00 | 0.00 | 0.00 | 23 | 911.0 |
| 20260504223038 | 27 | 219 | 3.2 | 8.0 | 0.00 | 0.00 | 0.00 | 23 | 911.1 |
| 20260504221537 | 27 | 190 | 9.7 | 22.5 | 0.00 | 0.00 | 0.00 | 21 | 911.2 |
| 20260504220035 | 27 | 177 | 16.1 | 22.5 | 0.00 | 0.00 | 0.00 | 21 | 911.3 |
| 20260504214539 | 27 | 214 | 6.4 | 19.3 | 0.00 | 0.00 | 0.00 | 21 | 911.5 |
| 20260504213038 | 27 | 174 | 6.4 | 24.1 | 0.00 | 0.00 | 0.00 | 22 | 911.5 |
| 20260504211532 | 27 | 129 | 6.4 | 17.7 | 0.00 | 0.00 | 0.00 | 21 | 911.7 |
| 20260504210031 | 28 | 116 | 8.0 | 20.9 | 0.00 | 0.00 | 0.00 | 22 | 911.7 |
| 20260504204530 | 28 | 145 | 6.4 | 16.1 | 0.00 | 0.00 | 0.00 | 23 | 911.8 |
| 20260504203032 | 28 | 123 | 3.2 | 14.5 | 0.00 | 0.00 | 0.00 | 22 | 911.9 |
| 20260504201528 | 28 | 74 | 6.4 | 16.1 | 0.00 | 0.00 | 0.00 | 22 | 911.9 |
| 20260504200037 | 28 | 82 | 11.3 | 24.1 | 0.00 | 0.00 | 0.00 | 22 | 912.1 |
| 20260504194524 | 27 | 58 | 6.4 | 19.3 | 0.00 | 0.00 | 0.00 | 20 | 912.3 |
| 20260504193022 | 28 | 79 | 6.4 | 17.7 | 0.00 | 0.00 | 0.00 | 23 | 912.6 |
| 20260504191530 | 27 | 355 | 3.2 | 16.1 | 0.00 | 0.00 | 0.00 | 22 | 912.7 |
| 20260504190016 | 27 | 73 | 6.4 | 17.7 | 0.00 | 0.00 | 0.00 | 23 | 912.9 |
| 20260504184516 | 27 | 5 | 4.8 | 19.3 | 0.00 | 0.00 | 0.00 | 24 | 913.0 |
| 20260504183033 | 27 | 69 | 9.7 | 20.9 | 0.00 | 0.00 | 0.00 | 25 | 913.2 |
| 20260504181522 | 27 | 5 | 1.6 | 17.7 | 0.00 | 0.00 | 0.00 | 28 | 913.3 |
| 20260504180014 | 27 | 61 | 4.8 | 14.5 | 0.00 | 0.00 | 0.00 | 25 | 913.4 |
| 20260504174515 | 26 | 5 | 3.2 | 14.5 | 0.00 | 0.00 | 0.00 | 27 | 913.7 |
| 20260504173007 | 26 | 51 | 3.2 | 12.9 | 0.00 | 0.00 | 0.00 | 29 | 913.6 |
| 20260504171502 | 25 | 360 | 4.8 | 12.9 | 0.00 | 0.00 | 0.00 | 31 | 913.7 |
| 20260504170109 | 25 | 355 | 8.0 | 19.3 | 0.00 | 0.00 | 0.00 | 32 | 913.8 |
| 20260504100103 | 7 | 285 | 3.2 | 11.3 | 0.00 | 0.00 | 0.00 | 72 | 913.5 |
| 20260504081541 | 10 | 294 | 6.4 | 11.3 | 0.00 | 0.00 | 0.00 | 63 | 913.8 |
| 20260504050002 | 16 | 80 | 12.9 | 24.1 | 0.00 | 0.00 | 0.00 | 46 | 914.9 |
| 20260504044504 | 16 | 70 | 14.5 | 22.5 | 0.00 | 0.00 | 0.00 | 45 | 915.1 |
| 20260504043102 | 17 | 60 | 12.9 | 25.7 | 0.00 | 0.00 | 0.00 | 45 | 915.1 |
| 20260504041601 | 17 | 75 | 17.7 | 27.4 | 0.00 | 0.00 | 0.00 | 44 | 915.3 |
| 20260504040105 | 17 | 78 | 16.1 | 22.5 | 0.00 | 0.00 | 0.00 | 45 | 915.4 |
| 20260504034610 | 17 | 74 | 6.4 | 17.7 | 0.00 | 0.00 | 0.00 | 45 | 915.6 |
| 20260504033127 | 17 | 53 | 9.7 | 16.1 | 0.00 | 0.00 | 0.00 | 44 | 915.7 |
| 20260504031603 | 17 | 56 | 8.0 | 19.3 | 0.00 | 0.00 | 0.00 | 44 | 915.7 |
| 20260504030101 | 17 | 53 | 11.3 | 19.3 | 0.00 | 0.00 | 0.00 | 43 | 915.8 |
| 20260504024556 | 18 | 50 | 9.7 | 16.1 | 0.00 | 0.00 | 0.00 | 41 | 915.8 |
| 20260504023103 | 19 | 65 | 16.1 | 24.1 | 0.00 | 0.00 | 0.00 | 39 | 915.8 |
| 20260504021556 | 20 | 51 | 4.8 | 17.7 | 0.00 | 0.00 | 0.00 | 39 | 915.7 |
| 20260504020155 | 21 | 49 | 8.0 | 16.1 | 0.00 | 0.00 | 0.00 | 38 | 915.6 |
| 20260504014554 | 22 | 74 | 6.4 | 17.7 | 0.00 | 0.00 | 0.00 | 35 | 915.6 |
| 20260504013106 | 22 | 48 | 8.0 | 17.7 | 0.00 | 0.00 | 0.00 | 33 | 915.5 |
| 20260504011553 | 23 | 34 | 4.8 | 14.5 | 0.00 | 0.00 | 0.00 | 32 | 915.3 |
| 20260504010104 | 23 | 28 | 3.2 | 14.5 | 0.00 | 0.00 | 0.00 | 32 | 915.3 |
| 20260504004607 | 25 | 15 | 3.2 | 12.9 | 0.00 | 0.00 | 0.00 | 28 | 915.1 |
| 20260504003051 | 26 | 19 | 3.2 | 9.7 | 0.00 | 0.00 | 0.00 | 24 | 914.8 |
| 20260504001554 | 26 | 15 | 4.8 | 14.5 | 0.00 | 0.00 | 0.00 | 22 | 914.8 |
| 20260504000049 | 27 | 24 | 8.0 | 20.9 | 0.00 | 0.00 | 0.00 | 19 | 914.8 |